sensor_id;sensor_type;location;lat;lon;timestamp;P1;durP1;ratioP1;P2;durP2;ratioP2
8254;SDS011;4167;48.162;11.542;2023-06-22T00:00:56;203.57;;;62.43;;
8254;SDS011;4167;48.162;11.542;2023-06-22T00:03:23;178.00;;;61.57;;
8254;SDS011;4167;48.162;11.542;2023-06-22T00:05:50;226.23;;;64.20;;
8254;SDS011;4167;48.162;11.542;2023-06-22T00:08:17;180.87;;;61.40;;
8254;SDS011;4167;48.162;11.542;2023-06-22T00:10:45;236.50;;;64.87;;
8254;SDS011;4167;48.162;11.542;2023-06-22T00:13:13;202.93;;;63.00;;
8254;SDS011;4167;48.162;11.542;2023-06-22T00:15:41;258.40;;;66.77;;
8254;SDS011;4167;48.162;11.542;2023-06-22T00:18:08;183.73;;;62.33;;
8254;SDS011;4167;48.162;11.542;2023-06-22T00:20:36;151.97;;;60.23;;
8254;SDS011;4167;48.162;11.542;2023-06-22T00:23:03;312.73;;;70.13;;
8254;SDS011;4167;48.162;11.542;2023-06-22T00:25:33;207.87;;;62.03;;
8254;SDS011;4167;48.162;11.542;2023-06-22T00:27:59;197.07;;;62.77;;
8254;SDS011;4167;48.162;11.542;2023-06-22T00:30:27;182.30;;;61.87;;
8254;SDS011;4167;48.162;11.542;2023-06-22T00:32:54;204.50;;;63.00;;
8254;SDS011;4167;48.162;11.542;2023-06-22T00:35:20;216.43;;;64.13;;
8254;SDS011;4167;48.162;11.542;2023-06-22T00:37:47;268.50;;;66.87;;
8254;SDS011;4167;48.162;11.542;2023-06-22T00:40:13;222.70;;;65.47;;
8254;SDS011;4167;48.162;11.542;2023-06-22T00:42:42;244.97;;;65.53;;
8254;SDS011;4167;48.162;11.542;2023-06-22T00:45:09;218.70;;;65.17;;
8254;SDS011;4167;48.162;11.542;2023-06-22T00:47:37;260.40;;;66.90;;
8254;SDS011;4167;48.162;11.542;2023-06-22T00:50:04;196.70;;;63.90;;
8254;SDS011;4167;48.162;11.542;2023-06-22T00:52:33;216.37;;;63.70;;
8254;SDS011;4167;48.162;11.542;2023-06-22T00:55:00;189.10;;;62.17;;
8254;SDS011;4167;48.162;11.542;2023-06-22T00:57:28;190.40;;;62.43;;
8254;SDS011;4167;48.162;11.542;2023-06-22T00:59:55;220.43;;;64.90;;
8254;SDS011;4167;48.162;11.542;2023-06-22T01:02:21;135.73;;;58.53;;
8254;SDS011;4167;48.162;11.542;2023-06-22T01:04:49;232.57;;;64.77;;
8254;SDS011;4167;48.162;11.542;2023-06-22T01:07:17;142.73;;;58.80;;
8254;SDS011;4167;48.162;11.542;2023-06-22T01:09:49;219.03;;;64.53;;
8254;SDS011;4167;48.162;11.542;2023-06-22T01:12:19;173.57;;;61.40;;
8254;SDS011;4167;48.162;11.542;2023-06-22T01:14:47;225.40;;;65.43;;
8254;SDS011;4167;48.162;11.542;2023-06-22T01:17:17;282.00;;;69.10;;
8254;SDS011;4167;48.162;11.542;2023-06-22T01:19:45;237.30;;;64.40;;
8254;SDS011;4167;48.162;11.542;2023-06-22T01:22:14;194.77;;;63.30;;
8254;SDS011;4167;48.162;11.542;2023-06-22T01:24:45;197.07;;;62.50;;
8254;SDS011;4167;48.162;11.542;2023-06-22T01:27:19;205.50;;;63.70;;
8254;SDS011;4167;48.162;11.542;2023-06-22T01:29:56;222.57;;;64.93;;
8254;SDS011;4167;48.162;11.542;2023-06-22T01:32:25;173.43;;;61.30;;
8254;SDS011;4167;48.162;11.542;2023-06-22T01:34:52;214.53;;;64.50;;
8254;SDS011;4167;48.162;11.542;2023-06-22T01:37:19;188.17;;;62.17;;
8254;SDS011;4167;48.162;11.542;2023-06-22T01:39:45;272.87;;;68.57;;
8254;SDS011;4167;48.162;11.542;2023-06-22T01:42:12;171.23;;;61.27;;
8254;SDS011;4167;48.162;11.542;2023-06-22T01:44:38;289.40;;;69.33;;
8254;SDS011;4167;48.162;11.542;2023-06-22T01:47:07;198.90;;;62.93;;
8254;SDS011;4167;48.162;11.542;2023-06-22T01:49:33;208.17;;;63.30;;
8254;SDS011;4167;48.162;11.542;2023-06-22T01:52:00;241.53;;;65.47;;
8254;SDS011;4167;48.162;11.542;2023-06-22T01:54:27;205.00;;;64.03;;
8254;SDS011;4167;48.162;11.542;2023-06-22T01:56:53;207.03;;;63.90;;
8254;SDS011;4167;48.162;11.542;2023-06-22T01:59:21;147.00;;;59.17;;
8254;SDS011;4167;48.162;11.542;2023-06-22T02:01:53;222.53;;;64.80;;
8254;SDS011;4167;48.162;11.542;2023-06-22T02:04:26;215.40;;;64.10;;
8254;SDS011;4167;48.162;11.542;2023-06-22T02:06:55;198.33;;;62.43;;
8254;SDS011;4167;48.162;11.542;2023-06-22T02:09:23;157.07;;;60.73;;
8254;SDS011;4167;48.162;11.542;2023-06-22T02:11:50;221.00;;;64.77;;
8254;SDS011;4167;48.162;11.542;2023-06-22T02:14:19;185.77;;;62.13;;
8254;SDS011;4167;48.162;11.542;2023-06-22T02:16:46;197.77;;;63.40;;
8254;SDS011;4167;48.162;11.542;2023-06-22T02:19:13;169.07;;;61.43;;
8254;SDS011;4167;48.162;11.542;2023-06-22T02:21:42;233.90;;;66.13;;
8254;SDS011;4167;48.162;11.542;2023-06-22T02:24:08;201.03;;;63.47;;
8254;SDS011;4167;48.162;11.542;2023-06-22T02:26:35;221.40;;;65.57;;
8254;SDS011;4167;48.162;11.542;2023-06-22T02:29:03;199.53;;;64.60;;
8254;SDS011;4167;48.162;11.542;2023-06-22T02:31:29;237.30;;;66.27;;
8254;SDS011;4167;48.162;11.542;2023-06-22T02:33:56;196.97;;;63.53;;
8254;SDS011;4167;48.162;11.542;2023-06-22T02:36:24;232.17;;;65.77;;
8254;SDS011;4167;48.162;11.542;2023-06-22T02:38:53;195.83;;;62.83;;
8254;SDS011;4167;48.162;11.542;2023-06-22T02:41:22;207.70;;;64.77;;
8254;SDS011;4167;48.162;11.542;2023-06-22T02:43:48;259.07;;;66.70;;
8254;SDS011;4167;48.162;11.542;2023-06-22T02:46:15;156.60;;;60.30;;
8254;SDS011;4167;48.162;11.542;2023-06-22T02:48:42;229.10;;;64.83;;
8254;SDS011;4167;48.162;11.542;2023-06-22T02:51:08;237.97;;;65.90;;
8254;SDS011;4167;48.162;11.542;2023-06-22T02:53:35;236.23;;;65.73;;
8254;SDS011;4167;48.162;11.542;2023-06-22T02:56:03;232.97;;;64.97;;
8254;SDS011;4167;48.162;11.542;2023-06-22T02:58:30;180.10;;;61.77;;
8254;SDS011;4167;48.162;11.542;2023-06-22T03:00:58;197.23;;;64.03;;
8254;SDS011;4167;48.162;11.542;2023-06-22T03:03:29;180.70;;;62.30;;
8254;SDS011;4167;48.162;11.542;2023-06-22T03:05:56;240.30;;;66.10;;
8254;SDS011;4167;48.162;11.542;2023-06-22T03:08:22;225.10;;;64.43;;
8254;SDS011;4167;48.162;11.542;2023-06-22T03:10:49;228.43;;;64.23;;
8254;SDS011;4167;48.162;11.542;2023-06-22T03:13:16;207.80;;;64.17;;
8254;SDS011;4167;48.162;11.542;2023-06-22T03:15:43;206.93;;;62.97;;
8254;SDS011;4167;48.162;11.542;2023-06-22T03:18:11;205.30;;;63.93;;
8254;SDS011;4167;48.162;11.542;2023-06-22T03:20:37;172.60;;;61.00;;
8254;SDS011;4167;48.162;11.542;2023-06-22T03:23:04;315.13;;;71.13;;
8254;SDS011;4167;48.162;11.542;2023-06-22T03:25:30;183.23;;;63.27;;
8254;SDS011;4167;48.162;11.542;2023-06-22T03:27:58;209.57;;;63.83;;
8254;SDS011;4167;48.162;11.542;2023-06-22T03:30:26;209.30;;;63.87;;
8254;SDS011;4167;48.162;11.542;2023-06-22T03:32:53;194.70;;;62.50;;
8254;SDS011;4167;48.162;11.542;2023-06-22T03:35:19;203.97;;;64.20;;
8254;SDS011;4167;48.162;11.542;2023-06-22T03:37:46;245.67;;;65.80;;
8254;SDS011;4167;48.162;11.542;2023-06-22T03:40:13;275.67;;;68.53;;
8254;SDS011;4167;48.162;11.542;2023-06-22T03:42:39;223.83;;;63.93;;
8254;SDS011;4167;48.162;11.542;2023-06-22T03:45:06;260.77;;;67.60;;
8254;SDS011;4167;48.162;11.542;2023-06-22T03:47:35;168.03;;;61.40;;
8254;SDS011;4167;48.162;11.542;2023-06-22T03:50:01;184.00;;;62.20;;
8254;SDS011;4167;48.162;11.542;2023-06-22T03:52:28;206.97;;;63.57;;
8254;SDS011;4167;48.162;11.542;2023-06-22T03:54:55;236.07;;;65.67;;
8254;SDS011;4167;48.162;11.542;2023-06-22T03:57:21;207.00;;;63.87;;
8254;SDS011;4167;48.162;11.542;2023-06-22T03:59:48;213.70;;;64.53;;
8254;SDS011;4167;48.162;11.542;2023-06-22T04:02:14;191.67;;;63.67;;
8254;SDS011;4167;48.162;11.542;2023-06-22T04:04:42;231.27;;;66.07;;
8254;SDS011;4167;48.162;11.542;2023-06-22T04:07:08;227.57;;;65.80;;
8254;SDS011;4167;48.162;11.542;2023-06-22T04:09:35;277.90;;;69.33;;
8254;SDS011;4167;48.162;11.542;2023-06-22T04:12:01;179.53;;;63.33;;
8254;SDS011;4167;48.162;11.542;2023-06-22T04:14:28;160.50;;;61.70;;
8254;SDS011;4167;48.162;11.542;2023-06-22T04:16:55;230.17;;;66.43;;
8254;SDS011;4167;48.162;11.542;2023-06-22T04:19:21;169.73;;;63.63;;
8254;SDS011;4167;48.162;11.542;2023-06-22T04:21:49;200.60;;;65.00;;
8254;SDS011;4167;48.162;11.542;2023-06-22T04:24:16;180.70;;;65.23;;
8254;SDS011;4167;48.162;11.542;2023-06-22T04:26:42;216.52;;;66.93;;
8254;SDS011;4167;48.162;11.542;2023-06-22T04:29:10;217.93;;;66.45;;
8254;SDS011;4167;48.162;11.542;2023-06-22T04:31:37;185.73;;;65.10;;
8254;SDS011;4167;48.162;11.542;2023-06-22T04:34:04;180.77;;;65.25;;
8254;SDS011;4167;48.162;11.542;2023-06-22T04:36:33;254.25;;;71.20;;
8254;SDS011;4167;48.162;11.542;2023-06-22T04:39:04;215.82;;;69.07;;
8254;SDS011;4167;48.162;11.542;2023-06-22T04:41:32;208.52;;;68.35;;
8254;SDS011;4167;48.162;11.542;2023-06-22T04:44:06;227.65;;;69.63;;
8254;SDS011;4167;48.162;11.542;2023-06-22T04:46:34;188.00;;;67.22;;
8254;SDS011;4167;48.162;11.542;2023-06-22T04:49:03;225.82;;;69.40;;
8254;SDS011;4167;48.162;11.542;2023-06-22T04:51:31;222.85;;;70.07;;
8254;SDS011;4167;48.162;11.542;2023-06-22T04:53:57;200.50;;;70.00;;
8254;SDS011;4167;48.162;11.542;2023-06-22T04:56:27;230.98;;;70.35;;
8254;SDS011;4167;48.162;11.542;2023-06-22T04:58:54;337.35;;;77.90;;
8254;SDS011;4167;48.162;11.542;2023-06-22T05:01:22;161.02;;;67.18;;
8254;SDS011;4167;48.162;11.542;2023-06-22T05:03:48;277.25;;;73.47;;
8254;SDS011;4167;48.162;11.542;2023-06-22T05:06:15;250.23;;;71.93;;
8254;SDS011;4167;48.162;11.542;2023-06-22T05:08:41;225.63;;;70.07;;
8254;SDS011;4167;48.162;11.542;2023-06-22T05:11:08;342.33;;;78.65;;
8254;SDS011;4167;48.162;11.542;2023-06-22T05:13:36;279.55;;;73.82;;
8254;SDS011;4167;48.162;11.542;2023-06-22T05:16:03;272.35;;;73.00;;
8254;SDS011;4167;48.162;11.542;2023-06-22T05:18:31;200.57;;;69.28;;
8254;SDS011;4167;48.162;11.542;2023-06-22T05:20:57;240.82;;;70.82;;
8254;SDS011;4167;48.162;11.542;2023-06-22T05:23:24;252.13;;;70.70;;
8254;SDS011;4167;48.162;11.542;2023-06-22T05:25:51;345.02;;;78.38;;
8254;SDS011;4167;48.162;11.542;2023-06-22T05:28:17;190.65;;;67.78;;
8254;SDS011;4167;48.162;11.542;2023-06-22T05:30:49;340.88;;;78.32;;
8254;SDS011;4167;48.162;11.542;2023-06-22T05:33:15;304.73;;;75.88;;
8254;SDS011;4167;48.162;11.542;2023-06-22T05:35:42;293.35;;;73.97;;
8254;SDS011;4167;48.162;11.542;2023-06-22T05:38:08;411.88;;;82.43;;
8254;SDS011;4167;48.162;11.542;2023-06-22T05:40:35;216.38;;;70.25;;
8254;SDS011;4167;48.162;11.542;2023-06-22T05:43:01;267.88;;;72.63;;
8254;SDS011;4167;48.162;11.542;2023-06-22T05:45:28;293.00;;;74.80;;
8254;SDS011;4167;48.162;11.542;2023-06-22T05:47:55;417.92;;;83.30;;
8254;SDS011;4167;48.162;11.542;2023-06-22T05:50:22;275.67;;;74.13;;
8254;SDS011;4167;48.162;11.542;2023-06-22T05:52:54;329.08;;;77.53;;
8254;SDS011;4167;48.162;11.542;2023-06-22T05:55:21;230.73;;;70.40;;
8254;SDS011;4167;48.162;11.542;2023-06-22T05:57:48;367.67;;;80.15;;
8254;SDS011;4167;48.162;11.542;2023-06-22T06:00:15;336.70;;;78.78;;
8254;SDS011;4167;48.162;11.542;2023-06-22T06:02:42;353.70;;;78.50;;
8254;SDS011;4167;48.162;11.542;2023-06-22T06:05:11;297.23;;;76.25;;
8254;SDS011;4167;48.162;11.542;2023-06-22T06:07:38;260.50;;;75.07;;
8254;SDS011;4167;48.162;11.542;2023-06-22T06:10:05;411.25;;;85.30;;
8254;SDS011;4167;48.162;11.542;2023-06-22T06:12:33;324.13;;;79.57;;
8254;SDS011;4167;48.162;11.542;2023-06-22T06:14:59;301.42;;;78.70;;
8254;SDS011;4167;48.162;11.542;2023-06-22T06:17:25;319.35;;;80.82;;
8254;SDS011;4167;48.162;11.542;2023-06-22T06:19:52;305.92;;;79.00;;
8254;SDS011;4167;48.162;11.542;2023-06-22T06:22:20;300.35;;;79.45;;
8254;SDS011;4167;48.162;11.542;2023-06-22T06:24:48;313.65;;;79.97;;
8254;SDS011;4167;48.162;11.542;2023-06-22T06:27:15;279.77;;;78.38;;
8254;SDS011;4167;48.162;11.542;2023-06-22T06:29:43;384.25;;;85.72;;
8254;SDS011;4167;48.162;11.542;2023-06-22T06:32:10;277.98;;;78.68;;
8254;SDS011;4167;48.162;11.542;2023-06-22T06:34:37;223.75;;;74.45;;
8254;SDS011;4167;48.162;11.542;2023-06-22T06:37:03;259.00;;;76.95;;
8254;SDS011;4167;48.162;11.542;2023-06-22T06:39:31;253.05;;;78.15;;
8254;SDS011;4167;48.162;11.542;2023-06-22T06:41:58;320.73;;;82.55;;
8254;SDS011;4167;48.162;11.542;2023-06-22T06:44:24;254.20;;;77.95;;
8254;SDS011;4167;48.162;11.542;2023-06-22T06:46:51;297.75;;;81.22;;
8254;SDS011;4167;48.162;11.542;2023-06-22T06:49:19;259.23;;;78.03;;
8254;SDS011;4167;48.162;11.542;2023-06-22T06:51:45;227.13;;;77.18;;
8254;SDS011;4167;48.162;11.542;2023-06-22T06:54:12;252.88;;;78.82;;
8254;SDS011;4167;48.162;11.542;2023-06-22T06:56:40;240.35;;;77.95;;
8254;SDS011;4167;48.162;11.542;2023-06-22T06:59:13;253.65;;;79.05;;
8254;SDS011;4167;48.162;11.542;2023-06-22T07:01:40;292.98;;;80.63;;
8254;SDS011;4167;48.162;11.542;2023-06-22T07:04:06;239.77;;;77.75;;
8254;SDS011;4167;48.162;11.542;2023-06-22T07:06:33;293.67;;;82.22;;
8254;SDS011;4167;48.162;11.542;2023-06-22T07:08:59;227.98;;;79.97;;
8254;SDS011;4167;48.162;11.542;2023-06-22T07:11:26;263.08;;;81.30;;
8254;SDS011;4167;48.162;11.542;2023-06-22T07:13:54;248.05;;;79.50;;
8254;SDS011;4167;48.162;11.542;2023-06-22T07:16:20;276.77;;;82.15;;
8254;SDS011;4167;48.162;11.542;2023-06-22T07:18:48;337.70;;;84.88;;
8254;SDS011;4167;48.162;11.542;2023-06-22T07:21:14;251.20;;;80.10;;
8254;SDS011;4167;48.162;11.542;2023-06-22T07:23:40;203.60;;;76.45;;
8254;SDS011;4167;48.162;11.542;2023-06-22T07:26:07;270.65;;;81.32;;
8254;SDS011;4167;48.162;11.542;2023-06-22T07:28:33;319.75;;;83.88;;
8254;SDS011;4167;48.162;11.542;2023-06-22T07:31:04;231.68;;;78.85;;
8254;SDS011;4167;48.162;11.542;2023-06-22T07:33:30;236.10;;;79.07;;
8254;SDS011;4167;48.162;11.542;2023-06-22T07:35:56;297.73;;;83.40;;
8254;SDS011;4167;48.162;11.542;2023-06-22T07:38:23;215.82;;;78.15;;
8254;SDS011;4167;48.162;11.542;2023-06-22T07:40:50;271.65;;;81.88;;
8254;SDS011;4167;48.162;11.542;2023-06-22T07:43:18;213.55;;;78.35;;
8254;SDS011;4167;48.162;11.542;2023-06-22T07:45:48;269.88;;;81.95;;
8254;SDS011;4167;48.162;11.542;2023-06-22T07:48:19;270.40;;;81.93;;
8254;SDS011;4167;48.162;11.542;2023-06-22T07:50:46;260.45;;;81.68;;
8254;SDS011;4167;48.162;11.542;2023-06-22T07:53:13;237.18;;;80.75;;
8254;SDS011;4167;48.162;11.542;2023-06-22T07:55:39;255.52;;;81.78;;
8254;SDS011;4167;48.162;11.542;2023-06-22T07:58:05;224.95;;;78.68;;
8254;SDS011;4167;48.162;11.542;2023-06-22T08:00:33;280.10;;;81.35;;
8254;SDS011;4167;48.162;11.542;2023-06-22T08:03:00;262.17;;;81.78;;
8254;SDS011;4167;48.162;11.542;2023-06-22T08:05:29;250.85;;;81.97;;
8254;SDS011;4167;48.162;11.542;2023-06-22T08:07:56;323.35;;;85.80;;
8254;SDS011;4167;48.162;11.542;2023-06-22T08:10:22;240.07;;;79.55;;
8254;SDS011;4167;48.162;11.542;2023-06-22T08:12:49;278.10;;;81.43;;
8254;SDS011;4167;48.162;11.542;2023-06-22T08:15:16;226.93;;;79.10;;
8254;SDS011;4167;48.162;11.542;2023-06-22T08:17:43;285.40;;;81.63;;
8254;SDS011;4167;48.162;11.542;2023-06-22T08:20:10;234.05;;;78.60;;
8254;SDS011;4167;48.162;11.542;2023-06-22T08:22:39;290.85;;;80.55;;
8254;SDS011;4167;48.162;11.542;2023-06-22T08:25:06;222.77;;;76.82;;
8254;SDS011;4167;48.162;11.542;2023-06-22T08:27:33;222.43;;;76.95;;
8254;SDS011;4167;48.162;11.542;2023-06-22T08:30:00;222.45;;;77.22;;
8254;SDS011;4167;48.162;11.542;2023-06-22T08:32:27;233.60;;;77.07;;
8254;SDS011;4167;48.162;11.542;2023-06-22T08:34:54;251.13;;;78.75;;
8254;SDS011;4167;48.162;11.542;2023-06-22T08:37:21;253.57;;;77.88;;
8254;SDS011;4167;48.162;11.542;2023-06-22T08:39:50;383.95;;;86.60;;
8254;SDS011;4167;48.162;11.542;2023-06-22T08:42:16;238.95;;;76.65;;
8254;SDS011;4167;48.162;11.542;2023-06-22T08:44:43;284.92;;;78.25;;
8254;SDS011;4167;48.162;11.542;2023-06-22T08:47:09;247.55;;;77.05;;
8254;SDS011;4167;48.162;11.542;2023-06-22T08:49:36;297.52;;;77.82;;
8254;SDS011;4167;48.162;11.542;2023-06-22T08:52:02;256.45;;;76.13;;
8254;SDS011;4167;48.162;11.542;2023-06-22T08:54:29;511.52;;;91.95;;
8254;SDS011;4167;48.162;11.542;2023-06-22T08:57:01;289.80;;;76.50;;
8254;SDS011;4167;48.162;11.542;2023-06-22T08:59:28;257.65;;;75.32;;
8254;SDS011;4167;48.162;11.542;2023-06-22T09:01:54;299.00;;;77.72;;
8254;SDS011;4167;48.162;11.542;2023-06-22T09:04:21;216.13;;;71.85;;
8254;SDS011;4167;48.162;11.542;2023-06-22T09:06:48;277.85;;;75.35;;
8254;SDS011;4167;48.162;11.542;2023-06-22T09:09:15;226.00;;;73.55;;
8254;SDS011;4167;48.162;11.542;2023-06-22T09:11:42;248.27;;;74.93;;
8254;SDS011;4167;48.162;11.542;2023-06-22T09:14:10;236.57;;;73.18;;
8254;SDS011;4167;48.162;11.542;2023-06-22T09:16:37;210.32;;;72.57;;
8254;SDS011;4167;48.162;11.542;2023-06-22T09:19:04;176.20;;;69.47;;
8254;SDS011;4167;48.162;11.542;2023-06-22T09:21:31;231.82;;;72.95;;
8254;SDS011;4167;48.162;11.542;2023-06-22T09:23:57;271.90;;;75.78;;
8254;SDS011;4167;48.162;11.542;2023-06-22T09:26:24;269.58;;;74.95;;
8254;SDS011;4167;48.162;11.542;2023-06-22T09:28:50;301.20;;;76.93;;
8254;SDS011;4167;48.162;11.542;2023-06-22T09:31:18;305.85;;;77.18;;
8254;SDS011;4167;48.162;11.542;2023-06-22T09:33:50;262.65;;;74.97;;
8254;SDS011;4167;48.162;11.542;2023-06-22T09:36:16;225.57;;;73.55;;
8254;SDS011;4167;48.162;11.542;2023-06-22T09:38:43;252.80;;;73.70;;
8254;SDS011;4167;48.162;11.542;2023-06-22T09:41:09;240.18;;;74.32;;
8254;SDS011;4167;48.162;11.542;2023-06-22T09:43:36;219.88;;;72.03;;
8254;SDS011;4167;48.162;11.542;2023-06-22T09:46:02;373.42;;;81.63;;
8254;SDS011;4167;48.162;11.542;2023-06-22T09:48:30;252.68;;;74.22;;
8254;SDS011;4167;48.162;11.542;2023-06-22T09:50:57;227.70;;;71.80;;
8254;SDS011;4167;48.162;11.542;2023-06-22T09:53:23;251.60;;;73.82;;
8254;SDS011;4167;48.162;11.542;2023-06-22T09:55:50;226.95;;;71.82;;
8254;SDS011;4167;48.162;11.542;2023-06-22T09:58:16;208.43;;;71.32;;
8254;SDS011;4167;48.162;11.542;2023-06-22T10:00:42;255.38;;;74.38;;
8254;SDS011;4167;48.162;11.542;2023-06-22T10:03:09;234.38;;;72.07;;
8254;SDS011;4167;48.162;11.542;2023-06-22T10:05:37;265.92;;;74.90;;
8254;SDS011;4167;48.162;11.542;2023-06-22T10:08:03;293.55;;;76.78;;
8254;SDS011;4167;48.162;11.542;2023-06-22T10:10:30;256.02;;;74.40;;
8254;SDS011;4167;48.162;11.542;2023-06-22T10:12:57;241.07;;;73.88;;
8254;SDS011;4167;48.162;11.542;2023-06-22T10:15:28;236.68;;;72.10;;
8254;SDS011;4167;48.162;11.542;2023-06-22T10:17:54;244.50;;;73.32;;
8254;SDS011;4167;48.162;11.542;2023-06-22T10:20:21;366.35;;;82.95;;
8254;SDS011;4167;48.162;11.542;2023-06-22T10:22:49;235.27;;;73.20;;
8254;SDS011;4167;48.162;11.542;2023-06-22T10:25:16;281.17;;;76.40;;
8254;SDS011;4167;48.162;11.542;2023-06-22T10:27:42;253.73;;;73.10;;
8254;SDS011;4167;48.162;11.542;2023-06-22T10:30:09;291.38;;;76.57;;
8254;SDS011;4167;48.162;11.542;2023-06-22T10:32:37;243.80;;;74.47;;
8254;SDS011;4167;48.162;11.542;2023-06-22T10:35:05;348.40;;;79.22;;
8254;SDS011;4167;48.162;11.542;2023-06-22T10:37:32;235.48;;;72.50;;
8254;SDS011;4167;48.162;11.542;2023-06-22T10:39:59;273.60;;;74.65;;
8254;SDS011;4167;48.162;11.542;2023-06-22T10:42:26;239.15;;;73.03;;
8254;SDS011;4167;48.162;11.542;2023-06-22T10:44:52;300.92;;;76.97;;
8254;SDS011;4167;48.162;11.542;2023-06-22T10:47:19;214.32;;;71.97;;
8254;SDS011;4167;48.162;11.542;2023-06-22T10:49:45;235.55;;;72.00;;
8254;SDS011;4167;48.162;11.542;2023-06-22T10:52:12;230.68;;;71.88;;
8254;SDS011;4167;48.162;11.542;2023-06-22T10:54:38;217.77;;;71.53;;
8254;SDS011;4167;48.162;11.542;2023-06-22T10:57:06;272.20;;;74.53;;
8254;SDS011;4167;48.162;11.542;2023-06-22T10:59:33;203.20;;;70.05;;
8254;SDS011;4167;48.162;11.542;2023-06-22T11:02:00;294.20;;;76.00;;
8254;SDS011;4167;48.162;11.542;2023-06-22T11:04:27;259.45;;;73.40;;
8254;SDS011;4167;48.162;11.542;2023-06-22T11:06:53;288.48;;;75.45;;
8254;SDS011;4167;48.162;11.542;2023-06-22T11:09:21;218.07;;;71.85;;
8254;SDS011;4167;48.162;11.542;2023-06-22T11:11:47;215.32;;;70.72;;
8254;SDS011;4167;48.162;11.542;2023-06-22T11:14:17;283.67;;;75.65;;
8254;SDS011;4167;48.162;11.542;2023-06-22T11:16:43;292.50;;;75.63;;
8254;SDS011;4167;48.162;11.542;2023-06-22T11:19:11;245.93;;;74.22;;
8254;SDS011;4167;48.162;11.542;2023-06-22T11:21:38;229.10;;;73.30;;
8254;SDS011;4167;48.162;11.542;2023-06-22T11:24:05;216.73;;;72.53;;
8254;SDS011;4167;48.162;11.542;2023-06-22T11:26:32;293.52;;;75.30;;
8254;SDS011;4167;48.162;11.542;2023-06-22T11:28:59;284.30;;;76.32;;
8254;SDS011;4167;48.162;11.542;2023-06-22T11:31:27;226.23;;;72.50;;
8254;SDS011;4167;48.162;11.542;2023-06-22T11:33:53;331.65;;;80.90;;
8254;SDS011;4167;48.162;11.542;2023-06-22T11:36:20;225.25;;;72.60;;
8254;SDS011;4167;48.162;11.542;2023-06-22T11:38:46;253.25;;;74.90;;
8254;SDS011;4167;48.162;11.542;2023-06-22T11:41:13;279.83;;;76.60;;
8254;SDS011;4167;48.162;11.542;2023-06-22T11:43:39;243.73;;;73.93;;
8254;SDS011;4167;48.162;11.542;2023-06-22T11:46:06;284.85;;;76.47;;
8254;SDS011;4167;48.162;11.542;2023-06-22T11:48:33;273.52;;;75.95;;
8254;SDS011;4167;48.162;11.542;2023-06-22T11:51:01;228.82;;;72.68;;
8254;SDS011;4167;48.162;11.542;2023-06-22T11:53:27;250.68;;;73.75;;
8254;SDS011;4167;48.162;11.542;2023-06-22T11:55:54;287.27;;;77.22;;
8254;SDS011;4167;48.162;11.542;2023-06-22T11:58:20;249.43;;;74.80;;
8254;SDS011;4167;48.162;11.542;2023-06-22T12:00:47;277.92;;;75.32;;
8254;SDS011;4167;48.162;11.542;2023-06-22T12:03:13;312.48;;;78.18;;
8254;SDS011;4167;48.162;11.542;2023-06-22T12:05:43;276.70;;;75.60;;
8254;SDS011;4167;48.162;11.542;2023-06-22T12:08:09;301.77;;;77.10;;
8254;SDS011;4167;48.162;11.542;2023-06-22T12:10:37;251.80;;;74.93;;
8254;SDS011;4167;48.162;11.542;2023-06-22T12:13:03;298.08;;;76.10;;
8254;SDS011;4167;48.162;11.542;2023-06-22T12:15:29;249.98;;;75.28;;
8254;SDS011;4167;48.162;11.542;2023-06-22T12:17:56;270.95;;;75.38;;
8254;SDS011;4167;48.162;11.542;2023-06-22T12:20:22;254.35;;;74.70;;
8254;SDS011;4167;48.162;11.542;2023-06-22T12:22:50;206.30;;;72.20;;
8254;SDS011;4167;48.162;11.542;2023-06-22T12:25:17;265.63;;;76.38;;
8254;SDS011;4167;48.162;11.542;2023-06-22T12:27:44;225.25;;;73.38;;
8254;SDS011;4167;48.162;11.542;2023-06-22T12:30:13;288.60;;;77.97;;
8254;SDS011;4167;48.162;11.542;2023-06-22T12:32:40;245.25;;;73.47;;
8254;SDS011;4167;48.162;11.542;2023-06-22T12:35:06;279.70;;;75.63;;
8254;SDS011;4167;48.162;11.542;2023-06-22T12:37:38;202.82;;;71.20;;
8254;SDS011;4167;48.162;11.542;2023-06-22T12:40:07;292.52;;;77.15;;
8254;SDS011;4167;48.162;11.542;2023-06-22T12:42:34;258.75;;;74.50;;
8254;SDS011;4167;48.162;11.542;2023-06-22T12:45:00;247.88;;;74.25;;
8254;SDS011;4167;48.162;11.542;2023-06-22T12:47:27;290.92;;;77.32;;
8254;SDS011;4167;48.162;11.542;2023-06-22T12:49:53;332.92;;;79.88;;
8254;SDS011;4167;48.162;11.542;2023-06-22T12:52:20;247.10;;;74.00;;
8254;SDS011;4167;48.162;11.542;2023-06-22T12:54:46;277.70;;;75.93;;
8254;SDS011;4167;48.162;11.542;2023-06-22T12:57:15;307.83;;;78.93;;
8254;SDS011;4167;48.162;11.542;2023-06-22T12:59:42;208.95;;;71.80;;
8254;SDS011;4167;48.162;11.542;2023-06-22T13:02:09;227.75;;;73.97;;
8254;SDS011;4167;48.162;11.542;2023-06-22T13:04:35;261.45;;;74.63;;
8254;SDS011;4167;48.162;11.542;2023-06-22T13:07:02;241.50;;;75.18;;
8254;SDS011;4167;48.162;11.542;2023-06-22T13:09:28;292.42;;;77.30;;
8254;SDS011;4167;48.162;11.542;2023-06-22T13:11:55;267.17;;;75.55;;
8254;SDS011;4167;48.162;11.542;2023-06-22T13:14:22;249.25;;;73.93;;
8254;SDS011;4167;48.162;11.542;2023-06-22T13:16:49;284.58;;;76.78;;
8254;SDS011;4167;48.162;11.542;2023-06-22T13:19:15;278.55;;;76.72;;
8254;SDS011;4167;48.162;11.542;2023-06-22T13:21:42;303.35;;;78.03;;
8254;SDS011;4167;48.162;11.542;2023-06-22T13:24:08;283.17;;;77.50;;
8254;SDS011;4167;48.162;11.542;2023-06-22T13:26:35;248.15;;;76.25;;
8254;SDS011;4167;48.162;11.542;2023-06-22T13:29:01;239.45;;;74.75;;
8254;SDS011;4167;48.162;11.542;2023-06-22T13:31:29;224.55;;;73.47;;
8254;SDS011;4167;48.162;11.542;2023-06-22T13:33:55;325.23;;;79.88;;
8254;SDS011;4167;48.162;11.542;2023-06-22T13:36:22;410.35;;;84.85;;
8254;SDS011;4167;48.162;11.542;2023-06-22T13:38:48;287.67;;;76.90;;
8254;SDS011;4167;48.162;11.542;2023-06-22T13:41:15;209.32;;;72.68;;
8254;SDS011;4167;48.162;11.542;2023-06-22T13:43:42;181.52;;;70.95;;
8254;SDS011;4167;48.162;11.542;2023-06-22T13:46:08;292.52;;;77.57;;
8254;SDS011;4167;48.162;11.542;2023-06-22T13:48:36;258.25;;;75.03;;
8254;SDS011;4167;48.162;11.542;2023-06-22T13:51:02;317.23;;;79.57;;
8254;SDS011;4167;48.162;11.542;2023-06-22T13:53:29;292.45;;;77.45;;
8254;SDS011;4167;48.162;11.542;2023-06-22T13:55:55;260.55;;;75.65;;
8254;SDS011;4167;48.162;11.542;2023-06-22T13:58:22;212.18;;;71.88;;
8254;SDS011;4167;48.162;11.542;2023-06-22T14:00:48;232.88;;;73.78;;
8254;SDS011;4167;48.162;11.542;2023-06-22T14:03:15;269.42;;;75.65;;
8254;SDS011;4167;48.162;11.542;2023-06-22T14:05:43;269.58;;;74.90;;
8254;SDS011;4167;48.162;11.542;2023-06-22T14:08:09;370.60;;;81.75;;
8254;SDS011;4167;48.162;11.542;2023-06-22T14:10:36;285.15;;;76.82;;
8254;SDS011;4167;48.162;11.542;2023-06-22T14:13:02;247.18;;;73.82;;
8254;SDS011;4167;48.162;11.542;2023-06-22T14:15:30;226.90;;;71.32;;
8254;SDS011;4167;48.162;11.542;2023-06-22T14:17:57;232.07;;;73.63;;
8254;SDS011;4167;48.162;11.542;2023-06-22T14:20:23;272.35;;;75.32;;